Terminal Aerodrome Forecast
Issued by NWS

Home | Current Version | Previous Version | Text Only | Print | Product List | Glossary Off
Versions: 1 2 3 4 5 6 7 8 9 10 11 12 13

953
FTUS42 KMHX 020502 AAA
TAFOAJ
TAF AMD
KOAJ 020502Z 0205/0224 32004KT 3SM BR SKC
      TEMPO 0205/0207 1SM BR
     FM020700 34004KT P6SM SKC
      AMD LTD TO CLD VIS AND WIND=

USA.gov is the U.S. government's official web portal to all federal, state and local government web resources and services.